sensor_id;sensor_type;location;lat;lon;timestamp;pressure;altitude;pressure_sealevel;temperature;humidity
38852;BME280;24605;50.092;9.182;2024-02-28T00:02:14;152638.34;;;2.28;100.00
38852;BME280;24605;50.092;9.182;2024-02-28T00:04:40;152656.47;;;2.35;100.00
38852;BME280;24605;50.092;9.182;2024-02-28T00:07:07;152637.06;;;2.27;100.00
38852;BME280;24605;50.092;9.182;2024-02-28T00:09:33;152673.31;;;2.42;100.00
38852;BME280;24605;50.092;9.182;2024-02-28T00:12:01;152665.53;;;2.39;100.00
38852;BME280;24605;50.092;9.182;2024-02-28T00:14:27;152616.34;;;2.19;100.00
38852;BME280;24605;50.092;9.182;2024-02-28T00:16:54;152656.47;;;2.35;100.00
38852;BME280;24605;50.092;9.182;2024-02-28T00:19:21;152647.41;;;2.31;100.00
38852;BME280;24605;50.092;9.182;2024-02-28T00:21:50;152643.53;;;2.30;100.00
38852;BME280;24605;50.092;9.182;2024-02-28T00:24:17;152642.22;;;2.29;100.00
38852;BME280;24605;50.092;9.182;2024-02-28T00:26:43;152604.69;;;2.14;100.00
38852;BME280;24605;50.092;9.182;2024-02-28T00:29:11;152598.16;;;2.12;100.00
38852;BME280;24605;50.092;9.182;2024-02-28T00:31:38;152559.31;;;1.96;100.00
38852;BME280;24605;50.092;9.182;2024-02-28T00:34:04;152545.06;;;1.91;100.00
38852;BME280;24605;50.092;9.182;2024-02-28T00:36:31;152501.06;;;1.73;100.00
38852;BME280;24605;50.092;9.182;2024-02-28T00:38:58;152541.22;;;1.89;100.00
38852;BME280;24605;50.092;9.182;2024-02-28T00:41:24;152554.13;;;1.94;100.00
38852;BME280;24605;50.092;9.182;2024-02-28T00:43:51;152571.00;;;2.01;100.00
38852;BME280;24605;50.092;9.182;2024-02-28T00:46:18;152591.69;;;2.09;100.00
38852;BME280;24605;50.092;9.182;2024-02-28T00:48:45;152552.88;;;1.94;100.00
38852;BME280;24605;50.092;9.182;2024-02-28T00:51:11;152574.91;;;2.02;100.00
38852;BME280;24605;50.092;9.182;2024-02-28T00:53:38;152468.69;;;1.60;100.00
38852;BME280;24605;50.092;9.182;2024-02-28T00:56:05;152467.41;;;1.60;100.00
38852;BME280;24605;50.092;9.182;2024-02-28T00:58:32;152485.53;;;1.67;100.00
38852;BME280;24605;50.092;9.182;2024-02-28T01:00:58;152449.28;;;1.52;100.00
38852;BME280;24605;50.092;9.182;2024-02-28T01:03:26;152442.84;;;1.50;100.00
38852;BME280;24605;50.092;9.182;2024-02-28T01:05:52;152383.25;;;1.26;100.00
38852;BME280;24605;50.092;9.182;2024-02-28T01:08:19;152366.41;;;1.19;100.00
38852;BME280;24605;50.092;9.182;2024-02-28T01:10:45;152341.84;;;1.09;100.00
38852;BME280;24605;50.092;9.182;2024-02-28T01:13:12;152317.28;;;1.00;100.00
38852;BME280;24605;50.092;9.182;2024-02-28T01:15:39;152318.53;;;1.00;100.00
38852;BME280;24605;50.092;9.182;2024-02-28T01:18:06;152284.91;;;0.87;100.00
38852;BME280;24605;50.092;9.182;2024-02-28T01:20:33;152262.91;;;0.78;100.00
38852;BME280;24605;50.092;9.182;2024-02-28T01:23:00;152247.41;;;0.72;100.00
38852;BME280;24605;50.092;9.182;2024-02-28T01:25:26;152238.34;;;0.68;100.00
38852;BME280;24605;50.092;9.182;2024-02-28T01:27:53;152202.09;;;0.54;100.00
38852;BME280;24605;50.092;9.182;2024-02-28T01:30:19;152204.69;;;0.55;100.00
38852;BME280;24605;50.092;9.182;2024-02-28T01:32:46;152274.56;;;0.83;100.00
38852;BME280;24605;50.092;9.182;2024-02-28T01:35:13;152310.75;;;0.97;100.00
38852;BME280;24605;50.092;9.182;2024-02-28T01:37:41;152301.72;;;0.93;100.00
38852;BME280;24605;50.092;9.182;2024-02-28T01:40:08;152339.25;;;1.08;100.00
38852;BME280;24605;50.092;9.182;2024-02-28T01:42:35;152292.66;;;0.90;100.00
38852;BME280;24605;50.092;9.182;2024-02-28T01:45:02;152299.16;;;0.92;100.00
38852;BME280;24605;50.092;9.182;2024-02-28T01:47:29;152300.44;;;0.93;100.00
38852;BME280;24605;50.092;9.182;2024-02-28T01:49:56;152147.78;;;0.32;100.00
38852;BME280;24605;50.092;9.182;2024-02-28T01:52:23;152308.22;;;0.96;100.00
38852;BME280;24605;50.092;9.182;2024-02-28T01:54:51;152303.03;;;0.94;100.00
38852;BME280;24605;50.092;9.182;2024-02-28T01:57:18;152222.78;;;0.62;100.00
38852;BME280;24605;50.092;9.182;2024-02-28T01:59:45;152295.25;;;0.91;100.00
38852;BME280;24605;50.092;9.182;2024-02-28T02:02:12;152299.16;;;0.92;100.00
38852;BME280;24605;50.092;9.182;2024-02-28T02:04:39;152282.34;;;0.86;100.00
38852;BME280;24605;50.092;9.182;2024-02-28T02:07:06;152282.34;;;0.86;100.00
38852;BME280;24605;50.092;9.182;2024-02-28T02:09:34;152270.69;;;0.81;100.00
38852;BME280;24605;50.092;9.182;2024-02-28T02:12:02;152270.69;;;0.81;100.00
38852;BME280;24605;50.092;9.182;2024-02-28T02:14:28;152265.50;;;0.79;100.00
38852;BME280;24605;50.092;9.182;2024-02-28T02:16:55;152269.38;;;0.81;100.00
38852;BME280;24605;50.092;9.182;2024-02-28T02:19:21;152261.63;;;0.77;100.00
38852;BME280;24605;50.092;9.182;2024-02-28T02:21:49;152277.13;;;0.84;100.00
38852;BME280;24605;50.092;9.182;2024-02-28T02:24:19;152233.16;;;0.66;100.00
38852;BME280;24605;50.092;9.182;2024-02-28T02:26:45;152218.91;;;0.60;100.00
38852;BME280;24605;50.092;9.182;2024-02-28T02:29:12;152253.84;;;0.74;100.00
38852;BME280;24605;50.092;9.182;2024-02-28T02:31:39;152225.38;;;0.63;100.00
38852;BME280;24605;50.092;9.182;2024-02-28T02:34:06;152109.00;;;0.17;100.00
38852;BME280;24605;50.092;9.182;2024-02-28T02:36:32;152180.13;;;0.45;100.00
38852;BME280;24605;50.092;9.182;2024-02-28T02:38:58;152162.03;;;0.38;100.00
38852;BME280;24605;50.092;9.182;2024-02-28T02:41:26;152155.56;;;0.35;100.00
38852;BME280;24605;50.092;9.182;2024-02-28T02:43:53;152164.63;;;0.39;100.00
38852;BME280;24605;50.092;9.182;2024-02-28T02:46:19;152198.22;;;0.52;100.00
38852;BME280;24605;50.092;9.182;2024-02-28T02:48:46;152203.41;;;0.54;100.00
38852;BME280;24605;50.092;9.182;2024-02-28T02:51:12;152220.25;;;0.61;100.00
38852;BME280;24605;50.092;9.182;2024-02-28T02:53:39;152253.84;;;0.74;100.00
38852;BME280;24605;50.092;9.182;2024-02-28T02:56:06;152260.31;;;0.77;100.00
38852;BME280;24605;50.092;9.182;2024-02-28T02:58:34;152283.59;;;0.86;100.00
38852;BME280;24605;50.092;9.182;2024-02-28T03:01:00;152295.25;;;0.91;100.00
38852;BME280;24605;50.092;9.182;2024-02-28T03:03:27;152278.41;;;0.84;100.00
38852;BME280;24605;50.092;9.182;2024-02-28T03:05:53;152278.41;;;0.84;100.00
38852;BME280;24605;50.092;9.182;2024-02-28T03:08:20;152217.66;;;0.60;100.00
38852;BME280;24605;50.092;9.182;2024-02-28T03:10:46;152246.06;;;0.71;100.00
38852;BME280;24605;50.092;9.182;2024-02-28T03:13:13;152191.75;;;0.50;100.00
38852;BME280;24605;50.092;9.182;2024-02-28T03:15:40;152176.25;;;0.43;100.00
38852;BME280;24605;50.092;9.182;2024-02-28T03:18:07;152164.63;;;0.39;100.00
38852;BME280;24605;50.092;9.182;2024-02-28T03:20:33;152137.41;;;0.28;100.00
38852;BME280;24605;50.092;9.182;2024-02-28T03:23:03;152137.41;;;0.28;100.00
38852;BME280;24605;50.092;9.182;2024-02-28T03:25:30;152106.41;;;0.15;100.00
38852;BME280;24605;50.092;9.182;2024-02-28T03:27:57;152158.09;;;0.36;100.00
38852;BME280;24605;50.092;9.182;2024-02-28T03:30:24;152151.66;;;0.34;100.00
38852;BME280;24605;50.092;9.182;2024-02-28T03:32:52;152136.16;;;0.27;100.00
38852;BME280;24605;50.092;9.182;2024-02-28T03:35:19;152088.31;;;0.08;100.00
38852;BME280;24605;50.092;9.182;2024-02-28T03:37:45;152037.84;;;-0.12;100.00
38852;BME280;24605;50.092;9.182;2024-02-28T03:40:12;152005.53;;;-0.25;100.00
38852;BME280;24605;50.092;9.182;2024-02-28T03:42:39;152005.53;;;-0.25;100.00
38852;BME280;24605;50.092;9.182;2024-02-28T03:45:06;151997.81;;;-0.28;100.00
38852;BME280;24605;50.092;9.182;2024-02-28T03:47:33;152065.03;;;-0.01;100.00
38852;BME280;24605;50.092;9.182;2024-02-28T03:50:00;152063.72;;;-0.02;100.00
38852;BME280;24605;50.092;9.182;2024-02-28T03:52:29;152090.84;;;0.09;100.00
38852;BME280;24605;50.092;9.182;2024-02-28T03:54:56;152062.44;;;-0.02;100.00
38852;BME280;24605;50.092;9.182;2024-02-28T03:57:23;152023.63;;;-0.18;100.00
38852;BME280;24605;50.092;9.182;2024-02-28T03:59:49;152080.53;;;0.05;100.00
38852;BME280;24605;50.092;9.182;2024-02-28T04:02:16;152070.16;;;0.01;100.00
38852;BME280;24605;50.092;9.182;2024-02-28T04:04:42;152107.69;;;0.16;100.00
38852;BME280;24605;50.092;9.182;2024-02-28T04:07:10;152124.50;;;0.23;100.00
38852;BME280;24605;50.092;9.182;2024-02-28T04:09:37;152110.28;;;0.17;100.00
38852;BME280;24605;50.092;9.182;2024-02-28T04:12:04;152107.69;;;0.16;100.00
38852;BME280;24605;50.092;9.182;2024-02-28T04:14:30;152090.84;;;0.09;100.00
38852;BME280;24605;50.092;9.182;2024-02-28T04:16:57;152083.13;;;0.06;100.00
38852;BME280;24605;50.092;9.182;2024-02-28T04:19:23;152074.09;;;0.03;100.00
38852;BME280;24605;50.092;9.182;2024-02-28T04:21:50;152079.22;;;0.05;100.00
38852;BME280;24605;50.092;9.182;2024-02-28T04:24:17;152110.28;;;0.17;100.00
38852;BME280;24605;50.092;9.182;2024-02-28T04:26:44;152056.00;;;-0.05;100.00
38852;BME280;24605;50.092;9.182;2024-02-28T04:29:10;152018.47;;;-0.20;100.00
38852;BME280;24605;50.092;9.182;2024-02-28T04:31:39;152002.94;;;-0.26;100.00
38852;BME280;24605;50.092;9.182;2024-02-28T04:34:05;152000.41;;;-0.27;100.00
38852;BME280;24605;50.092;9.182;2024-02-28T04:36:32;151939.63;;;-0.51;100.00
38852;BME280;24605;50.092;9.182;2024-02-28T04:38:58;151917.63;;;-0.60;100.00
38852;BME280;24605;50.092;9.182;2024-02-28T04:41:27;151949.94;;;-0.47;100.00
38852;BME280;24605;50.092;9.182;2024-02-28T04:43:54;151953.84;;;-0.45;100.00
38852;BME280;24605;50.092;9.182;2024-02-28T04:46:20;151938.31;;;-0.52;100.00
38852;BME280;24605;50.092;9.182;2024-02-28T04:48:46;152000.41;;;-0.27;100.00
38852;BME280;24605;50.092;9.182;2024-02-28T04:51:15;151964.16;;;-0.41;100.00
38852;BME280;24605;50.092;9.182;2024-02-28T04:53:42;151964.16;;;-0.41;100.00
38852;BME280;24605;50.092;9.182;2024-02-28T04:56:09;151964.16;;;-0.41;100.00
38852;BME280;24605;50.092;9.182;2024-02-28T04:58:37;152013.31;;;-0.22;100.00
38852;BME280;24605;50.092;9.182;2024-02-28T05:01:04;151827.19;;;-0.96;100.00
38852;BME280;24605;50.092;9.182;2024-02-28T05:03:30;151981.00;;;-0.35;100.00
38852;BME280;24605;50.092;9.182;2024-02-28T05:05:57;151957.72;;;-0.44;100.00
38852;BME280;24605;50.092;9.182;2024-02-28T05:08:24;151928.00;;;-0.56;100.00
38852;BME280;24605;50.092;9.182;2024-02-28T05:10:52;151906.00;;;-0.65;100.00
38852;BME280;24605;50.092;9.182;2024-02-28T05:13:18;151834.94;;;-0.93;100.00
38852;BME280;24605;50.092;9.182;2024-02-28T05:15:46;151882.75;;;-0.74;100.00
38852;BME280;24605;50.092;9.182;2024-02-28T05:18:13;151899.56;;;-0.67;100.00
38852;BME280;24605;50.092;9.182;2024-02-28T05:20:39;151908.59;;;-0.64;100.00
38852;BME280;24605;50.092;9.182;2024-02-28T05:23:06;151856.94;;;-0.84;100.00
38852;BME280;24605;50.092;9.182;2024-02-28T05:25:32;151776.81;;;-1.16;100.00
38852;BME280;24605;50.092;9.182;2024-02-28T05:27:58;151871.09;;;-0.79;100.00
38852;BME280;24605;50.092;9.182;2024-02-28T05:30:25;151807.81;;;-1.04;100.00
38852;BME280;24605;50.092;9.182;2024-02-28T05:32:53;151846.56;;;-0.88;100.00
38852;BME280;24605;50.092;9.182;2024-02-28T05:35:19;151827.19;;;-0.96;100.00
38852;BME280;24605;50.092;9.182;2024-02-28T05:37:46;151811.69;;;-1.02;100.00
38852;BME280;24605;50.092;9.182;2024-02-28T05:40:12;151840.13;;;-0.91;100.00
38852;BME280;24605;50.092;9.182;2024-02-28T05:42:39;151885.31;;;-0.73;100.00
38852;BME280;24605;50.092;9.182;2024-02-28T05:45:08;151915.03;;;-0.61;100.00
38852;BME280;24605;50.092;9.182;2024-02-28T05:47:35;151929.25;;;-0.55;100.00
38852;BME280;24605;50.092;9.182;2024-02-28T05:50:04;151915.03;;;-0.61;100.00
38852;BME280;24605;50.092;9.182;2024-02-28T05:52:31;151893.09;;;-0.70;100.00
38852;BME280;24605;50.092;9.182;2024-02-28T05:54:57;151978.41;;;-0.36;100.00
38852;BME280;24605;50.092;9.182;2024-02-28T05:57:23;151964.16;;;-0.41;100.00
38852;BME280;24605;50.092;9.182;2024-02-28T05:59:50;151909.91;;;-0.63;100.00
38852;BME280;24605;50.092;9.182;2024-02-28T06:02:17;151890.50;;;-0.71;100.00
38852;BME280;24605;50.092;9.182;2024-02-28T06:04:43;151882.75;;;-0.74;100.00
38852;BME280;24605;50.092;9.182;2024-02-28T06:07:11;151891.78;;;-0.70;100.00
38852;BME280;24605;50.092;9.182;2024-02-28T06:09:38;151859.47;;;-0.83;100.00
38852;BME280;24605;50.092;9.182;2024-02-28T06:12:05;151850.44;;;-0.87;100.00
38852;BME280;24605;50.092;9.182;2024-02-28T06:14:31;151853.03;;;-0.86;100.00
38852;BME280;24605;50.092;9.182;2024-02-28T06:16:58;151850.44;;;-0.87;100.00
38852;BME280;24605;50.092;9.182;2024-02-28T06:19:24;151822.03;;;-0.98;100.00
38852;BME280;24605;50.092;9.182;2024-02-28T06:21:51;151881.47;;;-0.74;100.00
38852;BME280;24605;50.092;9.182;2024-02-28T06:24:19;151895.69;;;-0.69;100.00
38852;BME280;24605;50.092;9.182;2024-02-28T06:26:45;151975.81;;;-0.37;100.00
38852;BME280;24605;50.092;9.182;2024-02-28T06:29:12;151969.34;;;-0.39;100.00
38852;BME280;24605;50.092;9.182;2024-02-28T06:31:39;152018.47;;;-0.20;100.00
38852;BME280;24605;50.092;9.182;2024-02-28T06:34:04;152018.47;;;-0.20;100.00
38852;BME280;24605;50.092;9.182;2024-02-28T06:36:31;152037.84;;;-0.12;100.00
38852;BME280;24605;50.092;9.182;2024-02-28T06:38:58;152015.91;;;-0.21;100.00
38852;BME280;24605;50.092;9.182;2024-02-28T06:41:25;152017.16;;;-0.20;100.00
38852;BME280;24605;50.092;9.182;2024-02-28T06:43:52;152036.56;;;-0.12;100.00
38852;BME280;24605;50.092;9.182;2024-02-28T06:46:18;152024.94;;;-0.17;100.00
38852;BME280;24605;50.092;9.182;2024-02-28T06:48:45;152083.13;;;0.06;100.00
38852;BME280;24605;50.092;9.182;2024-02-28T06:51:11;152092.19;;;0.10;100.00
38852;BME280;24605;50.092;9.182;2024-02-28T06:53:38;152155.56;;;0.35;100.00
38852;BME280;24605;50.092;9.182;2024-02-28T06:56:04;152209.88;;;0.57;100.00
38852;BME280;24605;50.092;9.182;2024-02-28T06:58:32;152149.06;;;0.33;100.00
38852;BME280;24605;50.092;9.182;2024-02-28T07:00:59;152257.72;;;0.76;100.00
38852;BME280;24605;50.092;9.182;2024-02-28T07:03:25;152313.34;;;0.98;100.00
38852;BME280;24605;50.092;9.182;2024-02-28T07:05:52;152225.38;;;0.63;100.00
38852;BME280;24605;50.092;9.182;2024-02-28T07:08:20;152326.31;;;1.03;100.00
38852;BME280;24605;50.092;9.182;2024-02-28T07:10:46;152371.59;;;1.21;100.00
38852;BME280;24605;50.092;9.182;2024-02-28T07:13:14;152403.97;;;1.34;100.00
38852;BME280;24605;50.092;9.182;2024-02-28T07:15:42;152436.31;;;1.47;100.00
38852;BME280;24605;50.092;9.182;2024-02-28T07:18:09;152458.34;;;1.56;100.00
38852;BME280;24605;50.092;9.182;2024-02-28T07:20:35;152486.84;;;1.67;100.00
38852;BME280;24605;50.092;9.182;2024-02-28T07:23:02;152502.38;;;1.74;100.00
38852;BME280;24605;50.092;9.182;2024-02-28T07:25:28;152453.16;;;1.54;100.00
38852;BME280;24605;50.092;9.182;2024-02-28T07:27:57;152514.03;;;1.78;100.00
38852;BME280;24605;50.092;9.182;2024-02-28T07:30:24;152561.91;;;1.97;100.00
38852;BME280;24605;50.092;9.182;2024-02-28T07:32:52;152582.66;;;2.06;100.00
38852;BME280;24605;50.092;9.182;2024-02-28T07:35:19;152624.09;;;2.22;100.00
38852;BME280;24605;50.092;9.182;2024-02-28T07:37:46;152651.31;;;2.33;100.00
38852;BME280;24605;50.092;9.182;2024-02-28T07:40:14;152729.03;;;2.64;100.00
38852;BME280;24605;50.092;9.182;2024-02-28T07:42:40;152723.84;;;2.62;100.00
38852;BME280;24605;50.092;9.182;2024-02-28T07:45:07;152600.78;;;2.13;100.00
38852;BME280;24605;50.092;9.182;2024-02-28T07:47:34;152744.56;;;2.70;100.00
38852;BME280;24605;50.092;9.182;2024-02-28T07:50:02;152795.16;;;2.90;100.00
38852;BME280;24605;50.092;9.182;2024-02-28T07:52:29;152743.28;;;2.70;100.00
38852;BME280;24605;50.092;9.182;2024-02-28T07:54:55;152758.84;;;2.76;100.00
38852;BME280;24605;50.092;9.182;2024-02-28T07:57:22;152823.63;;;3.02;100.00
38852;BME280;24605;50.092;9.182;2024-02-28T07:59:48;152839.22;;;3.08;100.00
38852;BME280;24605;50.092;9.182;2024-02-28T08:02:16;152905.31;;;3.34;100.00
38852;BME280;24605;50.092;9.182;2024-02-28T08:04:45;152940.31;;;3.48;100.00
38852;BME280;24605;50.092;9.182;2024-02-28T08:07:13;152881.97;;;3.25;100.00
38852;BME280;24605;50.092;9.182;2024-02-28T08:09:40;152889.75;;;3.28;100.00
38852;BME280;24605;50.092;9.182;2024-02-28T08:12:07;152748.50;;;2.72;100.00
38852;BME280;24605;50.092;9.182;2024-02-28T08:14:33;152696.66;;;2.51;100.00
38852;BME280;24605;50.092;9.182;2024-02-28T08:16:59;152675.91;;;2.43;100.00
38852;BME280;24605;50.092;9.182;2024-02-28T08:19:26;152646.13;;;2.31;100.00
38852;BME280;24605;50.092;9.182;2024-02-28T08:21:52;152590.44;;;2.09;100.00
38852;BME280;24605;50.092;9.182;2024-02-28T08:24:20;152631.88;;;2.25;100.00
38852;BME280;24605;50.092;9.182;2024-02-28T08:26:47;152590.44;;;2.09;100.00
38852;BME280;24605;50.092;9.182;2024-02-28T08:29:13;152633.16;;;2.26;100.00
38852;BME280;24605;50.092;9.182;2024-02-28T08:31:40;152826.22;;;3.03;100.00
38852;BME280;24605;50.092;9.182;2024-02-28T08:34:07;152870.31;;;3.20;100.00
38852;BME280;24605;50.092;9.182;2024-02-28T08:36:35;152853.44;;;3.13;100.00
38852;BME280;24605;50.092;9.182;2024-02-28T08:39:02;152806.81;;;2.95;100.00
38852;BME280;24605;50.092;9.182;2024-02-28T08:41:32;152707.03;;;2.55;100.00
38852;BME280;24605;50.092;9.182;2024-02-28T08:43:58;152732.91;;;2.65;100.00
38852;BME280;24605;50.092;9.182;2024-02-28T08:46:25;152712.19;;;2.57;100.00
38852;BME280;24605;50.092;9.182;2024-02-28T08:48:51;152783.50;;;2.86;100.00
38852;BME280;24605;50.092;9.182;2024-02-28T08:51:18;152916.97;;;3.39;100.00
38852;BME280;24605;50.092;9.182;2024-02-28T08:53:44;152939.03;;;3.48;100.00
38852;BME280;24605;50.092;9.182;2024-02-28T08:56:11;153005.16;;;3.74;100.00
38852;BME280;24605;50.092;9.182;2024-02-28T08:58:38;153088.16;;;4.07;100.00
38852;BME280;24605;50.092;9.182;2024-02-28T09:01:05;153050.56;;;3.92;100.00
38852;BME280;24605;50.092;9.182;2024-02-28T09:03:31;152828.81;;;3.04;100.00
38852;BME280;24605;50.092;9.182;2024-02-28T09:05:58;153020.69;;;3.80;100.00
38852;BME280;24605;50.092;9.182;2024-02-28T09:08:25;153114.09;;;4.17;100.00
38852;BME280;24605;50.092;9.182;2024-02-28T09:10:51;153045.38;;;3.90;100.00
38852;BME280;24605;50.092;9.182;2024-02-28T09:13:18;153002.56;;;3.73;100.00
38852;BME280;24605;50.092;9.182;2024-02-28T09:15:46;152916.97;;;3.39;100.00
38852;BME280;24605;50.092;9.182;2024-02-28T09:18:12;152963.66;;;3.57;100.00
38852;BME280;24605;50.092;9.182;2024-02-28T09:20:39;152874.16;;;3.22;100.00
38852;BME280;24605;50.092;9.182;2024-02-28T09:23:05;152854.75;;;3.14;100.00
38852;BME280;24605;50.092;9.182;2024-02-28T09:25:32;152799.03;;;2.92;100.00
38852;BME280;24605;50.092;9.182;2024-02-28T09:28:00;152800.31;;;2.92;100.00
38852;BME280;24605;50.092;9.182;2024-02-28T09:30:27;152834.03;;;3.06;100.00
38852;BME280;24605;50.092;9.182;2024-02-28T09:32:54;152914.38;;;3.38;100.00
38852;BME280;24605;50.092;9.182;2024-02-28T09:35:21;152933.84;;;3.45;100.00
38852;BME280;24605;50.092;9.182;2024-02-28T09:37:48;152845.69;;;3.10;100.00
38852;BME280;24605;50.092;9.182;2024-02-28T09:40:14;152863.81;;;3.18;100.00
38852;BME280;24605;50.092;9.182;2024-02-28T09:42:41;152946.78;;;3.51;100.00
38852;BME280;24605;50.092;9.182;2024-02-28T09:45:09;152997.34;;;3.71;100.00
38852;BME280;24605;50.092;9.182;2024-02-28T09:47:36;153003.88;;;3.73;100.00
38852;BME280;24605;50.092;9.182;2024-02-28T09:50:04;152988.28;;;3.67;100.00
38852;BME280;24605;50.092;9.182;2024-02-28T09:52:31;153003.88;;;3.73;100.00
38852;BME280;24605;50.092;9.182;2024-02-28T09:54:57;153051.84;;;3.92;100.00
38852;BME280;24605;50.092;9.182;2024-02-28T09:57:24;153047.97;;;3.91;100.00
38852;BME280;24605;50.092;9.182;2024-02-28T09:59:54;153084.28;;;4.05;100.00
38852;BME280;24605;50.092;9.182;2024-02-28T10:02:23;153038.91;;;3.87;100.00
38852;BME280;24605;50.092;9.182;2024-02-28T10:04:50;153051.84;;;3.92;100.00
38852;BME280;24605;50.092;9.182;2024-02-28T10:07:19;153067.41;;;3.99;100.00
38852;BME280;24605;50.092;9.182;2024-02-28T10:09:47;153081.69;;;4.04;100.00
38852;BME280;24605;50.092;9.182;2024-02-28T10:12:14;153060.91;;;3.96;100.00
38852;BME280;24605;50.092;9.182;2024-02-28T10:14:40;153072.59;;;4.01;100.00
38852;BME280;24605;50.092;9.182;2024-02-28T10:17:07;153107.63;;;4.15;100.00
38852;BME280;24605;50.092;9.182;2024-02-28T10:19:34;153132.25;;;4.24;100.00
38852;BME280;24605;50.092;9.182;2024-02-28T10:22:00;153168.63;;;4.39;100.00
38852;BME280;24605;50.092;9.182;2024-02-28T10:24:28;153146.53;;;4.30;100.00
38852;BME280;24605;50.092;9.182;2024-02-28T10:26:54;153159.53;;;4.35;100.00
38852;BME280;24605;50.092;9.182;2024-02-28T10:29:21;153172.50;;;4.41;100.00
38852;BME280;24605;50.092;9.182;2024-02-28T10:31:48;153184.19;;;4.45;100.00
38852;BME280;24605;50.092;9.182;2024-02-28T10:34:16;153262.00;;;4.76;100.00
38852;BME280;24605;50.092;9.182;2024-02-28T10:36:44;153250.38;;;4.72;100.00
38852;BME280;24605;50.092;9.182;2024-02-28T10:39:11;153249.06;;;4.71;100.00
38852;BME280;24605;50.092;9.182;2024-02-28T10:41:39;153221.81;;;4.60;100.00
38852;BME280;24605;50.092;9.182;2024-02-28T10:44:06;153202.34;;;4.52;100.00
38852;BME280;24605;50.092;9.182;2024-02-28T10:46:33;153217.88;;;4.59;100.00
38852;BME280;24605;50.092;9.182;2024-02-28T10:48:59;153298.38;;;4.91;100.00
38852;BME280;24605;50.092;9.182;2024-02-28T10:51:26;153265.94;;;4.78;100.00
38852;BME280;24605;50.092;9.182;2024-02-28T10:54:04;153317.84;;;4.98;100.00
38852;BME280;24605;50.092;9.182;2024-02-28T10:56:33;153299.66;;;4.91;100.00
38852;BME280;24605;50.092;9.182;2024-02-28T10:59:02;153391.88;;;5.28;100.00
38852;BME280;24605;50.092;9.182;2024-02-28T11:01:31;153374.97;;;5.21;100.00
38852;BME280;24605;50.092;9.182;2024-02-28T11:03:58;153349.00;;;5.11;100.00
38852;BME280;24605;50.092;9.182;2024-02-28T11:06:25;153339.94;;;5.07;100.00
38852;BME280;24605;50.092;9.182;2024-02-28T11:08:53;153389.28;;;5.27;100.00
38852;BME280;24605;50.092;9.182;2024-02-28T11:11:22;153425.59;;;5.41;100.00
38852;BME280;24605;50.092;9.182;2024-02-28T11:13:52;153386.66;;;5.26;100.00
38852;BME280;24605;50.092;9.182;2024-02-28T11:16:26;153451.59;;;5.52;100.00
38852;BME280;24605;50.092;9.182;2024-02-28T11:18:52;153463.28;;;5.56;100.00
38852;BME280;24605;50.092;9.182;2024-02-28T11:21:19;153513.94;;;5.76;100.00
38852;BME280;24605;50.092;9.182;2024-02-28T11:23:46;153523.00;;;5.80;100.00
38852;BME280;24605;50.092;9.182;2024-02-28T11:26:13;153556.81;;;5.93;100.00
38852;BME280;24605;50.092;9.182;2024-02-28T11:28:40;153536.03;;;5.85;100.00
38852;BME280;24605;50.092;9.182;2024-02-28T11:31:06;153547.72;;;5.90;100.00
38852;BME280;24605;50.092;9.182;2024-02-28T11:33:35;153533.44;;;5.84;100.00
38852;BME280;24605;50.092;9.182;2024-02-28T11:36:04;153561.97;;;5.95;100.00
38852;BME280;24605;50.092;9.182;2024-02-28T11:38:30;153545.13;;;5.89;100.00
38852;BME280;24605;50.092;9.182;2024-02-28T11:40:57;153555.47;;;5.93;100.00
38852;BME280;24605;50.092;9.182;2024-02-28T11:43:24;153604.91;;;6.13;100.00
38852;BME280;24605;50.092;9.182;2024-02-28T11:45:50;153615.34;;;6.17;100.00
38852;BME280;24605;50.092;9.182;2024-02-28T11:48:18;153608.78;;;6.14;100.00
38852;BME280;24605;50.092;9.182;2024-02-28T11:50:46;153584.13;;;6.04;100.00
38852;BME280;24605;50.092;9.182;2024-02-28T11:53:12;153607.53;;;6.14;100.00
38852;BME280;24605;50.092;9.182;2024-02-28T11:55:39;153589.34;;;6.06;100.00
38852;BME280;24605;50.092;9.182;2024-02-28T11:58:07;153677.69;;;6.41;100.00
38852;BME280;24605;50.092;9.182;2024-02-28T12:00:46;153680.31;;;6.42;100.00
38852;BME280;24605;50.092;9.182;2024-02-28T12:03:12;153685.47;;;6.45;100.00
38852;BME280;24605;50.092;9.182;2024-02-28T12:05:42;153701.09;;;6.51;100.00
38852;BME280;24605;50.092;9.182;2024-02-28T12:08:10;153617.88;;;6.18;100.00
38852;BME280;24605;50.092;9.182;2024-02-28T12:10:37;153654.31;;;6.32;100.00
38852;BME280;24605;50.092;9.182;2024-02-28T12:13:04;153699.75;;;6.50;100.00
38852;BME280;24605;50.092;9.182;2024-02-28T12:15:32;153716.66;;;6.57;100.00
38852;BME280;24605;50.092;9.182;2024-02-28T12:17:59;153730.97;;;6.63;100.00
38852;BME280;24605;50.092;9.182;2024-02-28T12:20:26;153728.38;;;6.62;100.00
38852;BME280;24605;50.092;9.182;2024-02-28T12:22:52;153724.50;;;6.60;100.00
38852;BME280;24605;50.092;9.182;2024-02-28T12:25:20;153721.88;;;6.59;100.00
38852;BME280;24605;50.092;9.182;2024-02-28T12:27:47;153717.94;;;6.57;100.00
38852;BME280;24605;50.092;9.182;2024-02-28T12:30:13;153723.16;;;6.59;100.00
38852;BME280;24605;50.092;9.182;2024-02-28T12:32:40;153741.34;;;6.67;100.00
38852;BME280;24605;50.092;9.182;2024-02-28T12:35:07;153745.28;;;6.68;100.00
38852;BME280;24605;50.092;9.182;2024-02-28T12:37:33;153753.03;;;6.71;100.00
38852;BME280;24605;50.092;9.182;2024-02-28T12:40:00;153714.06;;;6.56;100.00
38852;BME280;24605;50.092;9.182;2024-02-28T12:42:29;153746.56;;;6.69;100.00
38852;BME280;24605;50.092;9.182;2024-02-28T12:44:55;153798.56;;;6.89;100.00
38852;BME280;24605;50.092;9.182;2024-02-28T12:47:22;153812.88;;;6.95;100.00